Terminal Aerodrome Forecast
Issued by NWS

Home | Current Version | Previous Version | Text Only | Print | Product List | Glossary On
Versions: 1 2 3 4 5 6 7 8 9 10 11 12 13 14 15 16 17 18 19 20 21 22 23 24
000
FTUS46 KSEW 211126
TAFHQM
TAF
KHQM 211126Z 2112/2212 11015KT 6SM -RA BR BKN027 OVC035
      WS020/19055KT
     FM211500 15030G42KT 4SM RA BR OVC015 WS020/19055KT
     FM211700 21018G30KT 6SM -SHRA BR SCT012 BKN025
     FM212300 21015G24KT P6SM VCSH SCT025 BKN050
     FM220200 22010KT P6SM VCSH SCT025 BKN050=

USA.gov is the U.S. government's official web portal to all federal, state and local government web resources and services.